Muenster, Germany

10:27 AM CEST on July 29, 2016 (GMT +0200)
Munster-Osnabruck | | Change Station

Elev 157 ft 52.13 °N, 7.70 °E | Updated 7 minutes ago

Mostly Cloudy
Mostly Cloudy
66 °F
Feels Like 66 °F
N
7
Wind Variable Wind from SSW

Today
High -- | Low -- °F
--% Chance of Precip.
Yesterday
High -- | Low -- °F
Precip. -- in
Pressure 29.89 in
Visibility 6.2 miles
Clouds Scattered Clouds 1200 ft
Mostly Cloudy 25000 ft
Dew Point 59 °F
Humidity 78%
Rainfall 0.00 in
Snow Depth Not available.
5:46 AM 9:23 PM
Waning Crescent, 24% visible
METAR EDDG 290820Z 21006KT 160V260 9999 SCT012 BKN250 19/15 Q1012 TEMPO BKN012
Pressure 29.89 in
Visibility 6.2 miles
Clouds Scattered Clouds 1200 ft
Mostly Cloudy 25000 ft
Dew Point 59 °F
Humidity 78%
Rainfall 0.00 in
Snow Depth Not available.
5:46 AM 9:23 PM
Waning Crescent, 24% visible
METAR EDDG 290820Z 21006KT 160V260 9999 SCT012 BKN250 19/15 Q1012 TEMPO BKN012

10-Day Weather Forecast

×

Almanac

Astronomy

Jul. 29, 2016 Rise Set
Actual Time
Civil Twilight
Nautical Twilight
Astronomical Twilight
Moon
Length of Visible Light
Length of Day
Tomorrow will be .
, % of the Moon is Illuminated

Today's Extremes

Country Highs Country Lows

Community

WunderPhotos

Upload Photos

1,928,300 photos uploaded!

WunderBlog® & News

Nearby

Air Quality

  Air Quality AQ Index Pollutant
Not available.

Snow Depth

Station Depth Elevation

Earthquake Activity

City Distance Mag. Time & Date
Minimum magnitude displayed is 2.5.

Coastal Water Temperatures

Place Temperature

Stations

Nearby Weather Stations

Station Location Temp. Windchill Dew Point Humidity Wind Precip. Elev Updated Type